createdAt,value
2019-03-23T00:02:23.853Z,98830.73
2019-03-23T00:04:55.048Z,98833.89
2019-03-23T00:07:26.276Z,98832.34
2019-03-23T00:09:58.724Z,98835.64
2019-03-23T00:12:29.945Z,98834.52
2019-03-23T00:15:01.176Z,98820.22
2019-03-23T00:17:32.326Z,98828.34
2019-03-23T00:20:03.608Z,98830.77
2019-03-23T00:22:34.673Z,98835.78
2019-03-23T00:25:06.284Z,98829.11
2019-03-23T00:27:37.528Z,98842.11
2019-03-23T00:30:10.430Z,98827.98
2019-03-23T00:32:41.562Z,98825.14
2019-03-23T00:35:13.376Z,98827.28
2019-03-23T00:37:44.532Z,98825.38
2019-03-23T00:40:15.769Z,98820.83
2019-03-23T00:42:46.903Z,98819.22
2019-03-23T00:45:18.043Z,98820.17
2019-03-23T00:47:49.212Z,98820.63
2019-03-23T00:50:20.432Z,98819.84
2019-03-23T00:52:51.503Z,98821.40
2019-03-23T00:55:22.768Z,98812.79
2019-03-23T00:57:53.959Z,98815.47
2019-03-23T01:00:25.306Z,98819.34
2019-03-23T01:02:56.314Z,98819.09
2019-03-23T01:05:27.571Z,98825.31
2019-03-23T01:07:58.668Z,98823.77
2019-03-23T01:10:29.727Z,98820.50
2019-03-23T01:13:00.966Z,98815.55
2019-03-23T01:15:31.910Z,98815.30
2019-03-23T01:18:02.956Z,98811.00
2019-03-23T01:20:34.101Z,98812.05
2019-03-23T01:23:05.262Z,98807.64
2019-03-23T01:25:36.376Z,98806.94
2019-03-23T01:28:07.580Z,98807.80
2019-03-23T01:30:38.781Z,98809.81
2019-03-23T01:33:09.895Z,98811.23
2019-03-23T01:35:41.061Z,98803.37
2019-03-23T01:38:12.113Z,98808.73
2019-03-23T01:40:43.379Z,98810.84
2019-03-23T01:43:14.446Z,98805.24
2019-03-23T01:45:45.486Z,98806.56
2019-03-23T01:48:16.501Z,98809.75
2019-03-23T01:50:47.546Z,98812.42
2019-03-23T01:53:18.821Z,98812.16
2019-03-23T01:55:49.939Z,98809.59
2019-03-23T01:58:21.026Z,98809.48
2019-03-23T02:00:52.097Z,98807.51
2019-03-23T02:03:23.588Z,98816.77
2019-03-23T02:05:54.678Z,98813.08
2019-03-23T02:08:25.718Z,98809.16
2019-03-23T02:10:56.831Z,98810.39
2019-03-23T02:13:27.880Z,98812.94
2019-03-23T02:15:59.162Z,98819.82
2019-03-23T02:18:30.235Z,98815.19
2019-03-23T02:21:01.992Z,98815.24
2019-03-23T02:23:33.087Z,98815.16
2019-03-23T02:26:04.290Z,98826.41
2019-03-23T02:28:35.371Z,98821.80
2019-03-23T02:31:07.421Z,98821.72
2019-03-23T02:33:38.888Z,98824.80
2019-03-23T02:36:10.069Z,98821.83
2019-03-23T02:38:41.003Z,98825.64
2019-03-23T02:41:12.124Z,98825.58
2019-03-23T02:43:43.101Z,98822.70
2019-03-23T02:46:14.139Z,98822.64
2019-03-23T02:48:45.105Z,98824.15
2019-03-23T02:51:16.329Z,98820.86
2019-03-23T02:53:47.430Z,98819.40
2019-03-23T02:56:18.523Z,98821.83
2019-03-23T02:58:49.581Z,98824.66
2019-03-23T03:01:20.717Z,98817.97
2019-03-23T03:03:51.808Z,98833.20
2019-03-23T03:06:23.159Z,98821.96
2019-03-23T03:08:54.272Z,98812.19
2019-03-23T03:11:25.311Z,98822.28
2019-03-23T03:13:56.358Z,98817.00
2019-03-23T03:16:27.429Z,98818.02
2019-03-23T03:18:58.492Z,98813.91
2019-03-23T03:21:29.585Z,98808.33
2019-03-23T03:24:00.653Z,98807.70
2019-03-23T03:26:31.679Z,98810.68
2019-03-23T03:29:02.758Z,98802.46
2019-03-23T03:31:33.869Z,98811.50
2019-03-23T03:34:05.014Z,98814.91
2019-03-23T03:36:36.105Z,98809.05
2019-03-23T03:39:09.108Z,98809.89
2019-03-23T03:41:40.501Z,98805.09
2019-03-23T03:44:11.541Z,98803.05
2019-03-23T03:46:42.571Z,98798.98
2019-03-23T03:49:13.642Z,98797.95
2019-03-23T03:51:44.637Z,98802.75
2019-03-23T03:54:15.626Z,98808.64
2019-03-23T03:56:46.574Z,98802.70
2019-03-23T03:59:17.552Z,98799.10
2019-03-23T04:01:48.676Z,98805.72
2019-03-23T04:04:19.816Z,98804.62
2019-03-23T04:06:50.935Z,98800.05
2019-03-23T04:09:22.194Z,98793.00
2019-03-23T04:11:53.291Z,98799.55
2019-03-23T04:14:24.345Z,98799.95
2019-03-23T04:16:55.428Z,98797.03
2019-03-23T04:19:26.480Z,98795.33
2019-03-23T04:21:57.669Z,98804.52
2019-03-23T04:24:28.648Z,98802.28
2019-03-23T04:26:59.796Z,98801.97
2019-03-23T04:29:30.869Z,98801.95
2019-03-23T04:32:01.986Z,98811.51
2019-03-23T04:34:32.993Z,98809.86
2019-03-23T04:37:04.199Z,98810.45
2019-03-23T04:39:35.317Z,98807.37
2019-03-23T04:42:06.500Z,98810.81
2019-03-23T04:44:37.479Z,98807.06
2019-03-23T04:47:08.710Z,98803.59
2019-03-23T04:49:39.803Z,98808.05
2019-03-23T04:52:10.991Z,98809.21
2019-03-23T04:54:42.039Z,98806.61
2019-03-23T04:57:13.113Z,98798.98
2019-03-23T04:59:44.239Z,98801.33
2019-03-23T05:02:15.376Z,98809.73
2019-03-23T05:04:46.512Z,98807.25
2019-03-23T05:07:17.480Z,98808.78
2019-03-23T05:09:48.541Z,98809.91
2019-03-23T05:12:19.606Z,98812.05
2019-03-23T05:14:50.643Z,98816.12
2019-03-23T05:17:21.714Z,98815.14
2019-03-23T05:19:52.838Z,98816.78
2019-03-23T05:22:24.027Z,98817.09
2019-03-23T05:24:55.303Z,98815.00
2019-03-23T05:27:26.370Z,98817.79
2019-03-23T05:29:57.488Z,98815.98
2019-03-23T05:32:28.579Z,98819.73
2019-03-23T05:35:06.080Z,98827.44
2019-03-23T05:37:37.173Z,98824.63
2019-03-23T05:40:08.694Z,98827.90
2019-03-23T05:42:39.631Z,98828.22
2019-03-23T05:45:10.992Z,98828.84
2019-03-23T05:47:42.018Z,98830.66
2019-03-23T05:50:13.453Z,98832.83
2019-03-23T05:52:44.498Z,98834.39
2019-03-23T05:55:15.637Z,98834.33
2019-03-23T05:57:46.757Z,98838.82
2019-03-23T06:00:19.768Z,98835.05
2019-03-23T06:02:50.763Z,98837.74
2019-03-23T06:05:21.932Z,98843.98
2019-03-23T06:07:52.893Z,98848.03
2019-03-23T06:10:23.956Z,98844.44
2019-03-23T06:12:55.044Z,98845.89
2019-03-23T06:15:26.258Z,98846.67
2019-03-23T06:17:57.213Z,98848.06
2019-03-23T06:20:28.265Z,98849.49
2019-03-23T06:22:59.294Z,98849.27
2019-03-23T06:25:30.377Z,98847.88
2019-03-23T06:28:01.327Z,98849.59
2019-03-23T06:30:32.364Z,98850.61
2019-03-23T06:33:03.472Z,98858.48
2019-03-23T06:35:34.522Z,98851.98
2019-03-23T06:38:05.740Z,98854.02
2019-03-23T06:40:37.516Z,98852.17
2019-03-23T06:43:08.753Z,98847.75
2019-03-23T06:45:39.902Z,98842.64
2019-03-23T06:48:11.025Z,98847.92
2019-03-23T06:50:42.293Z,98842.72
2019-03-23T06:53:13.315Z,98847.09
2019-03-23T06:55:44.759Z,98843.34
2019-03-23T06:58:15.837Z,98862.94
2019-03-23T07:00:47.182Z,98848.30
2019-03-23T07:03:18.367Z,98846.97
2019-03-23T07:05:49.529Z,98847.69
2019-03-23T07:08:31.361Z,98849.80
2019-03-23T07:10:54.739Z,98850.14
2019-03-23T07:13:25.698Z,98850.87
2019-03-23T07:15:57.923Z,98858.16
2019-03-23T07:18:29.118Z,98866.39
2019-03-23T07:21:00.295Z,98857.95
2019-03-23T07:23:31.427Z,98853.47
2019-03-23T07:26:02.828Z,98865.34
2019-03-23T07:28:33.961Z,98863.50
2019-03-23T07:31:05.106Z,98865.08
2019-03-23T07:33:36.208Z,98859.29
2019-03-23T07:36:08.493Z,98863.69
2019-03-23T07:38:39.518Z,98860.99
2019-03-23T07:41:10.485Z,98868.52
2019-03-23T07:43:41.477Z,98867.24
2019-03-23T07:46:13.534Z,98867.67
2019-03-23T07:48:44.952Z,98860.23
2019-03-23T07:51:15.998Z,98860.82
2019-03-23T07:53:47.218Z,98865.76
2019-03-23T07:56:18.240Z,98862.73
2019-03-23T07:58:49.315Z,98856.27
2019-03-23T08:01:20.533Z,98865.77
2019-03-23T08:03:51.559Z,98857.37
2019-03-23T08:06:22.633Z,98860.34
2019-03-23T08:08:53.832Z,98861.25
2019-03-23T08:11:24.868Z,98859.01
2019-03-23T08:13:58.037Z,98869.06
2019-03-23T08:16:29.222Z,98872.45
2019-03-23T08:19:00.307Z,98868.91
2019-03-23T08:21:31.495Z,98872.48
2019-03-23T08:24:02.564Z,98869.62
2019-03-23T08:26:33.558Z,98861.09
2019-03-23T08:29:04.663Z,98868.23
2019-03-23T08:31:35.768Z,98875.90
2019-03-23T08:34:07.051Z,98872.80
2019-03-23T08:36:38.059Z,98874.33
2019-03-23T08:39:09.779Z,98878.05
2019-03-23T08:41:41.020Z,98876.69
2019-03-23T08:44:12.011Z,98875.27
2019-03-23T08:46:43.108Z,98875.45
2019-03-23T08:49:14.147Z,98866.73
2019-03-23T08:51:45.345Z,98865.30
2019-03-23T08:54:16.344Z,98869.12
2019-03-23T08:56:47.298Z,98861.59
2019-03-23T08:59:18.274Z,98867.36
2019-03-23T09:01:49.424Z,98866.48
2019-03-23T09:04:20.498Z,98871.84
2019-03-23T09:06:51.659Z,98872.60
2019-03-23T09:09:22.754Z,98871.99
2019-03-23T09:11:53.737Z,98874.05
2019-03-23T09:14:24.783Z,98878.41
2019-03-23T09:16:56.251Z,98877.09
2019-03-23T09:19:27.454Z,98878.91
2019-03-23T09:21:58.622Z,98882.20
2019-03-23T09:24:29.657Z,98880.31
2019-03-23T09:27:00.668Z,98874.13
2019-03-23T09:29:31.586Z,98875.72
2019-03-23T09:32:02.533Z,98882.44
2019-03-23T09:34:33.497Z,98874.08
2019-03-23T09:37:04.656Z,98877.09
2019-03-23T09:39:35.827Z,98872.48
2019-03-23T09:42:07.238Z,98876.59
2019-03-23T09:44:38.277Z,98878.31
2019-03-23T09:47:09.344Z,98873.08
2019-03-23T09:49:40.545Z,98876.52
2019-03-23T09:52:11.737Z,98872.75
2019-03-23T09:54:42.847Z,98866.85
2019-03-23T09:57:13.900Z,98871.15
2019-03-23T09:59:45.018Z,98869.77
2019-03-23T10:02:16.239Z,98863.70
2019-03-23T10:04:47.179Z,98861.23
2019-03-23T10:07:18.320Z,98869.46
2019-03-23T10:09:49.355Z,98867.25
2019-03-23T10:12:20.521Z,98862.23
2019-03-23T10:14:51.623Z,98863.31
2019-03-23T10:17:22.874Z,98856.01
2019-03-23T10:19:53.851Z,98857.24
2019-03-23T10:22:25.147Z,98856.48
2019-03-23T10:24:56.271Z,98848.89
2019-03-23T10:27:27.361Z,98853.44
2019-03-23T10:29:58.522Z,98850.83
2019-03-23T10:32:29.751Z,98852.75
2019-03-23T10:35:00.980Z,98848.98
2019-03-23T10:37:32.088Z,98840.05
2019-03-23T10:40:03.138Z,98841.86
2019-03-23T10:42:34.243Z,98843.78
2019-03-23T10:45:06.202Z,98837.09
2019-03-23T10:47:37.467Z,98834.23
2019-03-23T10:50:09.176Z,98834.64
2019-03-23T10:52:40.276Z,98838.47
2019-03-23T10:55:11.640Z,98838.89
2019-03-23T10:57:42.771Z,98834.86
2019-03-23T11:00:14.888Z,98834.97
2019-03-23T11:02:45.992Z,98831.34
2019-03-23T11:05:17.143Z,98835.21
2019-03-23T11:07:48.209Z,98843.00
2019-03-23T11:10:19.413Z,98841.69
2019-03-23T11:12:50.586Z,98837.98
2019-03-23T11:15:21.731Z,98842.08
2019-03-23T11:17:52.776Z,98837.09
2019-03-23T11:20:23.986Z,98839.36
2019-03-23T11:22:55.057Z,98836.31
2019-03-23T11:25:26.239Z,98846.36
2019-03-23T11:27:57.393Z,98844.41
2019-03-23T11:30:28.618Z,98831.57
2019-03-23T11:32:59.628Z,98845.52
2019-03-23T11:35:30.845Z,98836.88
2019-03-23T11:38:02.494Z,98834.97
2019-03-23T11:40:33.782Z,98835.00
2019-03-23T11:43:04.909Z,98826.19
2019-03-23T11:45:36.026Z,98834.86
2019-03-23T11:48:07.243Z,98830.12
2019-03-23T11:50:38.367Z,98817.14
2019-03-23T11:53:09.485Z,98815.27
2019-03-23T11:55:40.631Z,98812.30
2019-03-23T11:58:11.766Z,98820.47
2019-03-23T12:00:43.034Z,98806.22
2019-03-23T12:03:14.291Z,98812.22
2019-03-23T12:05:45.427Z,98817.34
2019-03-23T12:08:16.506Z,98810.08
2019-03-23T12:10:47.614Z,98817.33
2019-03-23T12:13:18.921Z,98818.31
2019-03-23T12:15:50.296Z,98814.88
2019-03-23T12:18:21.561Z,98808.45
2019-03-23T12:20:52.691Z,98804.50
2019-03-23T12:23:23.922Z,98807.05
2019-03-23T12:25:55.177Z,98806.51
2019-03-23T12:28:26.349Z,98811.37
2019-03-23T12:30:57.472Z,98801.14
2019-03-23T12:33:28.896Z,98806.03
2019-03-23T12:35:59.961Z,98809.75
2019-03-23T12:38:31.096Z,98814.64
2019-03-23T12:41:11.204Z,98796.34
2019-03-23T12:43:35.244Z,98796.62
2019-03-23T12:46:06.498Z,98793.91
2019-03-23T12:48:37.496Z,98794.45
2019-03-23T12:51:08.633Z,98790.95
2019-03-23T12:53:39.794Z,98790.69
2019-03-23T12:56:11.045Z,98786.63
2019-03-23T12:58:42.109Z,98789.07
2019-03-23T13:01:13.210Z,98781.27
2019-03-23T13:03:44.390Z,98777.22
2019-03-23T13:06:15.638Z,98774.25
2019-03-23T13:08:46.795Z,98776.70
2019-03-23T13:11:24.607Z,98775.32
2019-03-23T13:13:53.055Z,98772.11
2019-03-23T13:16:24.487Z,98768.88
2019-03-23T13:18:55.637Z,98770.47
2019-03-23T13:21:26.911Z,98766.42
2019-03-23T13:23:59.370Z,98762.12
2019-03-23T13:26:33.959Z,98757.02
2019-03-23T13:29:05.298Z,98758.62
2019-03-23T13:31:36.847Z,98760.52
2019-03-23T13:34:08.250Z,98754.85
2019-03-23T13:36:39.759Z,98751.06
2019-03-23T13:39:11.085Z,98745.95
2019-03-23T13:41:52.121Z,98736.81
2019-03-23T13:44:23.101Z,98744.07
2019-03-23T13:46:54.227Z,98739.46
2019-03-23T13:49:25.235Z,98743.81
2019-03-23T13:51:56.559Z,98743.00
2019-03-23T13:54:27.675Z,98745.69
2019-03-23T13:56:58.729Z,98735.73
2019-03-23T13:59:29.909Z,98734.11
2019-03-23T14:02:01.013Z,98732.23
2019-03-23T14:04:32.382Z,98735.41
2019-03-23T14:07:03.363Z,98729.78
2019-03-23T14:09:34.447Z,98727.89
2019-03-23T14:12:05.618Z,98723.05
2019-03-23T14:14:37.422Z,98731.38
2019-03-23T14:17:08.637Z,98722.77
2019-03-23T14:19:40.080Z,98717.43
2019-03-23T14:22:11.360Z,98717.12
2019-03-23T14:24:42.598Z,98723.06
2019-03-23T14:27:13.625Z,98720.09
2019-03-23T14:29:45.543Z,98705.56
2019-03-23T14:32:16.727Z,98719.84
2019-03-23T14:34:47.943Z,98720.93
2019-03-23T14:37:19.338Z,98704.77
2019-03-23T14:39:50.402Z,98710.66
2019-03-23T14:42:21.456Z,98709.33
2019-03-23T14:44:52.647Z,98719.05
2019-03-23T14:47:23.863Z,98709.58
2019-03-23T14:49:54.915Z,98716.27
2019-03-23T14:52:25.931Z,98702.06
2019-03-23T14:54:57.002Z,98710.34
2019-03-23T14:57:28.166Z,98706.09
2019-03-23T14:59:59.255Z,98710.38
2019-03-23T15:02:30.283Z,98709.60
2019-03-23T15:05:01.543Z,98706.36
2019-03-23T15:07:32.652Z,98706.08
2019-03-23T15:10:04.274Z,98702.02
2019-03-23T15:12:35.402Z,98703.69
2019-03-23T15:15:07.943Z,98699.10
2019-03-23T15:17:48.380Z,98694.51
2019-03-23T15:20:12.424Z,98695.86
2019-03-23T15:22:43.637Z,98696.42
2019-03-23T15:25:14.897Z,98699.09
2019-03-23T15:27:46.174Z,98695.61
2019-03-23T15:30:17.392Z,98687.79
2019-03-23T15:32:48.620Z,98700.44
2019-03-23T15:35:19.740Z,98696.16
2019-03-23T15:37:50.905Z,98701.53
2019-03-23T15:40:22.074Z,98695.06
2019-03-23T15:42:53.282Z,98706.37
2019-03-23T15:45:24.392Z,98701.53
2019-03-23T15:47:55.608Z,98701.01
2019-03-23T15:50:28.067Z,98691.57
2019-03-23T15:52:59.357Z,98695.36
2019-03-23T15:55:30.471Z,98693.20
2019-03-23T15:58:01.989Z,98691.31
2019-03-23T16:00:33.527Z,98695.88
2019-03-23T16:03:04.801Z,98688.34
2019-03-23T16:05:36.227Z,98695.58
2019-03-23T16:08:07.391Z,98688.55
2019-03-23T16:10:38.776Z,98690.16
2019-03-23T16:13:10.052Z,98692.33
2019-03-23T16:15:41.246Z,98695.01
2019-03-23T16:18:12.464Z,98703.36
2019-03-23T16:20:43.541Z,98701.66
2019-03-23T16:23:14.685Z,98707.57
2019-03-23T16:25:48.549Z,98700.59
2019-03-23T16:28:19.620Z,98708.89
2019-03-23T16:30:50.754Z,98698.72
2019-03-23T16:33:22.272Z,98695.14
2019-03-23T16:35:54.108Z,98709.91
2019-03-23T16:38:26.172Z,98704.25
2019-03-23T16:40:58.124Z,98709.32
2019-03-23T16:43:29.747Z,98707.70
2019-03-23T16:46:00.862Z,98695.53
2019-03-23T16:48:31.936Z,98700.31
2019-03-23T16:51:03.087Z,98698.97
2019-03-23T16:53:34.122Z,98700.81
2019-03-23T16:56:05.379Z,98704.76
2019-03-23T16:58:36.422Z,98712.73
2019-03-23T17:01:08.429Z,98694.45
2019-03-23T17:03:40.841Z,98704.20
2019-03-23T17:06:12.106Z,98698.84
2019-03-23T17:08:43.257Z,98700.94
2019-03-23T17:11:14.514Z,98705.19
2019-03-23T17:13:45.639Z,98707.77
2019-03-23T17:16:16.895Z,98710.39
2019-03-23T17:18:47.950Z,98711.34
2019-03-23T17:21:18.962Z,98710.02
2019-03-23T17:23:50.023Z,98717.06
2019-03-23T17:26:21.154Z,98702.07
2019-03-23T17:28:52.558Z,98714.30
2019-03-23T17:31:23.826Z,98711.38
2019-03-23T17:33:54.972Z,98710.53
2019-03-23T17:36:26.098Z,98713.83
2019-03-23T17:38:57.213Z,98717.56
2019-03-23T17:41:28.349Z,98723.64
2019-03-23T17:43:59.517Z,98722.19
2019-03-23T17:46:30.521Z,98726.28
2019-03-23T17:49:01.711Z,98733.66
2019-03-23T17:51:32.705Z,98731.04
2019-03-23T17:54:05.126Z,98730.09
2019-03-23T17:56:36.198Z,98730.52
2019-03-23T17:59:07.386Z,98729.97
2019-03-23T18:01:38.731Z,98727.34
2019-03-23T18:04:09.831Z,98732.57
2019-03-23T18:06:41.019Z,98734.41
2019-03-23T18:09:12.219Z,98732.28
2019-03-23T18:11:43.317Z,98735.78
2019-03-23T18:14:14.653Z,98735.16
2019-03-23T18:16:45.901Z,98744.77
2019-03-23T18:19:17.067Z,98750.09
2019-03-23T18:21:48.299Z,98750.94
2019-03-23T18:24:19.405Z,98745.91
2019-03-23T18:26:50.670Z,98756.03
2019-03-23T18:29:21.842Z,98755.62
2019-03-23T18:31:53.005Z,98754.94
2019-03-23T18:34:24.143Z,98757.12
2019-03-23T18:36:56.770Z,98759.61
2019-03-23T18:39:27.927Z,98757.98
2019-03-23T18:41:59.207Z,98758.36
2019-03-23T18:44:30.256Z,98758.47
2019-03-23T18:47:01.586Z,98761.34
2019-03-23T18:49:34.842Z,98758.20
2019-03-23T18:52:06.194Z,98768.31
2019-03-23T18:54:37.269Z,98768.45
2019-03-23T18:57:08.421Z,98770.95
2019-03-23T18:59:39.649Z,98770.56
2019-03-23T19:02:10.909Z,98767.91
2019-03-23T19:04:41.972Z,98766.11
2019-03-23T19:07:15.266Z,98770.72
2019-03-23T19:09:46.253Z,98766.97
2019-03-23T19:12:17.178Z,98769.88
2019-03-23T19:14:48.191Z,98768.67
2019-03-23T19:17:19.317Z,98769.32
2019-03-23T19:19:50.249Z,98765.50
2019-03-23T19:22:21.430Z,98759.50
2019-03-23T19:24:52.592Z,98761.44
2019-03-23T19:27:23.744Z,98756.73
2019-03-23T19:29:54.888Z,98752.47
2019-03-23T19:32:26.114Z,98757.90
2019-03-23T19:34:57.166Z,98755.09
2019-03-23T19:37:28.428Z,98755.65
2019-03-23T19:39:59.566Z,98761.70
2019-03-23T19:42:30.806Z,98758.48
2019-03-23T19:45:01.872Z,98766.52
2019-03-23T19:47:33.456Z,98769.48
2019-03-23T19:50:04.959Z,98772.64
2019-03-23T19:52:36.118Z,98777.34
2019-03-23T19:55:07.570Z,98787.08
2019-03-23T19:57:38.857Z,98772.72
2019-03-23T20:00:11.770Z,98777.47
2019-03-23T20:02:44.764Z,98776.70
2019-03-23T20:05:17.719Z,98780.18
2019-03-23T20:07:48.936Z,98778.22
2019-03-23T20:10:20.171Z,98775.45
2019-03-23T20:12:51.340Z,98784.88
2019-03-23T20:15:22.460Z,98779.19
2019-03-23T20:17:53.681Z,98777.89
2019-03-23T20:20:24.823Z,98775.30
2019-03-23T20:22:56.126Z,98777.78
2019-03-23T20:25:27.242Z,98778.86
2019-03-23T20:27:58.487Z,98784.42
2019-03-23T20:30:29.748Z,98782.15
2019-03-23T20:33:01.048Z,98785.31
2019-03-23T20:35:31.948Z,98786.20
2019-03-23T20:38:03.115Z,98791.20
2019-03-23T20:40:34.351Z,98788.30
2019-03-23T20:43:05.674Z,98795.48
2019-03-23T20:45:36.868Z,98793.03
2019-03-23T20:48:08.191Z,98783.47
2019-03-23T20:50:40.008Z,98780.02
2019-03-23T20:53:11.238Z,98784.41
2019-03-23T20:55:42.271Z,98781.65
2019-03-23T20:58:13.480Z,98790.50
2019-03-23T21:03:28.549Z,98790.88
2019-03-23T21:06:00.731Z,98790.19
2019-03-23T21:08:31.854Z,98801.56
2019-03-23T21:11:03.079Z,98784.05
2019-03-23T21:13:34.425Z,98790.56
2019-03-23T21:16:05.981Z,98797.17
2019-03-23T21:18:37.271Z,98791.20
2019-03-23T21:21:08.320Z,98796.41
2019-03-23T21:23:39.487Z,98789.57
2019-03-23T21:26:10.654Z,98794.05
2019-03-23T21:28:41.850Z,98796.33
2019-03-23T21:31:12.832Z,98800.14
2019-03-23T21:33:43.986Z,98793.31
2019-03-23T21:36:15.173Z,98792.57
2019-03-23T21:38:46.512Z,98793.00
2019-03-23T21:41:17.645Z,98791.90
2019-03-23T21:43:49.233Z,98782.41
2019-03-23T21:46:20.428Z,98781.42
2019-03-23T21:48:51.730Z,98783.08
2019-03-23T21:51:22.936Z,98788.39
2019-03-23T21:53:54.065Z,98782.59
2019-03-23T21:56:25.239Z,98782.67
2019-03-23T21:58:56.481Z,98777.97
2019-03-23T22:01:27.670Z,98777.06
2019-03-23T22:03:58.788Z,98761.04
2019-03-23T22:06:29.905Z,98767.16
2019-03-23T22:09:01.095Z,98758.37
2019-03-23T22:11:32.218Z,98762.06
2019-03-23T22:14:03.617Z,98760.02
2019-03-23T22:16:34.781Z,98759.50
2019-03-23T22:19:05.964Z,98757.80
2019-03-23T22:21:37.003Z,98757.88
2019-03-23T22:24:08.150Z,98756.68
2019-03-23T22:26:39.392Z,98759.73
2019-03-23T22:29:10.413Z,98759.92
2019-03-23T22:31:41.462Z,98758.61
2019-03-23T22:34:12.528Z,98751.27
2019-03-23T22:36:43.578Z,98749.53
2019-03-23T22:39:14.596Z,98748.91
2019-03-23T22:41:45.710Z,98750.86
2019-03-23T22:44:16.850Z,98746.33
2019-03-23T22:46:47.818Z,98748.77
2019-03-23T22:49:18.924Z,98750.69
2019-03-23T22:51:50.025Z,98738.58
2019-03-23T22:54:21.086Z,98741.45
2019-03-23T22:56:52.237Z,98736.94
2019-03-23T22:59:23.341Z,98737.57
2019-03-23T23:01:54.748Z,98739.08
2019-03-23T23:04:25.881Z,98735.67
2019-03-23T23:06:57.007Z,98732.28
2019-03-23T23:09:28.104Z,98727.91
2019-03-23T23:11:59.131Z,98729.86
2019-03-23T23:14:31.248Z,98723.94
2019-03-23T23:17:02.455Z,98718.59
2019-03-23T23:19:33.592Z,98714.19
2019-03-23T23:22:04.679Z,98719.08
2019-03-23T23:24:35.828Z,98717.41
2019-03-23T23:27:07.048Z,98715.11
2019-03-23T23:29:38.110Z,98709.91
2019-03-23T23:32:09.221Z,98713.78
2019-03-23T23:34:40.398Z,98712.14
2019-03-23T23:37:11.543Z,98704.06
2019-03-23T23:39:42.620Z,98706.59
2019-03-23T23:42:13.730Z,98698.28
2019-03-23T23:44:44.877Z,98696.72
2019-03-23T23:47:16.136Z,98705.64
2019-03-23T23:49:47.348Z,98696.16
2019-03-23T23:52:18.554Z,98702.06
2019-03-23T23:54:49.551Z,98698.46
2019-03-23T23:57:20.625Z,98697.44
2019-03-23T23:59:51.666Z,98699.70
